Time;durP1;ratioP1;P1;durP2;ratioP2;P2;SDS_P1;SDS_P2;PMS_P1;PMS_P2;Temp;Humidity;BMP_temperature;BMP_pressure;BME280_temperature;BME280_humidity;BME280_pressure;Samples;Min_cycle;Max_cycle;Signal;HPM_P1;HPM_P2
2024/01/05 00:00:02;;;;;;;;;;;;;;;;;;5126815;27;19927;-66
2024/01/05 00:02:28;;;;;;;;;;;;;;;;;;5128753;27;19923;-66
2024/01/05 00:04:54;;;;;;;;;;;;;;;;;;5135724;27;19930;-66
2024/01/05 00:07:21;;;;;;;;;;;;;;;;;;5129241;27;19926;-66
2024/01/05 00:09:47;;;;;;;;;;;;;;;;;;5131670;27;20006;-65
2024/01/05 00:12:13;;;;;;;;;;;;;;;;;;5130853;27;20022;-65
2024/01/05 00:14:39;;;;;;;;;;;;;;;;;;5136287;27;19926;-65
2024/01/05 00:17:05;;;;;;;;;;;;;;;;;;5128633;27;19927;-65
2024/01/05 00:19:31;;;;;;;;;;;;;;;;;;5147693;27;19927;-65
2024/01/05 00:21:57;;;;;;;;;;;;;;;;;;5131811;27;19924;-65
2024/01/05 00:24:22;;;;;;;;;;;;;;;;;;5145631;27;20017;-65
2024/01/05 00:26:48;;;;;;;;;;;;;;;;;;5132994;27;19979;-65
2024/01/05 00:29:14;;;;;;;;;;;;;;;;;;5136482;27;19976;-65
2024/01/05 00:31:40;;;;;;;;;;;;;;;;;;5125171;27;20006;-65
2024/01/05 00:34:06;;;;;;;;;;;;;;;;;;5136436;27;20006;-65
2024/01/05 00:36:32;;;;;;;;;;;;;;;;;;5137687;27;19924;-65
2024/01/05 00:38:58;;;;;;;;;;;;;;;;;;5140162;27;19930;-65
2024/01/05 00:41:24;;;;;;;;;;;;;;;;;;5136559;27;19929;-65
2024/01/05 00:43:50;;;;;;;;;;;;;;;;;;5133994;27;19937;-65
2024/01/05 00:46:16;;;;;;;;;;;;;;;;;;5130552;27;19923;-65
2024/01/05 00:48:42;;;;;;;;;;;;;;;;;;5134548;27;20018;-65
2024/01/05 00:51:08;;;;;;;;;;;;;;;;;;5134021;27;19954;-65
2024/01/05 00:53:34;;;;;;;;;;;;;;;;;;5133538;27;19946;-65
2024/01/05 00:56:00;;;;;;;;;;;;;;;;;;5129631;27;19927;-65
2024/01/05 00:58:26;;;;;;;;;;;;;;;;;;5137363;27;19933;-65
2024/01/05 01:00:52;;;;;;;;;;;;;;;;;;5136220;27;19920;-66
2024/01/05 01:03:17;;;;;;;;;;;;;;;;;;5130946;27;19945;-65
2024/01/05 01:05:44;;;;;;;;;;;;;;;;;;5134490;27;19919;-65
2024/01/05 01:08:12;;;;;;;;;;;;;;;;;;5132862;27;19919;-65
2024/01/05 01:10:38;;;;;;;;;;;;;;;;;;5132564;27;20348;-65
2024/01/05 01:13:04;;;;;;;;;;;;;;;;;;5138212;27;19926;-65
2024/01/05 01:15:30;;;;;;;;;;;;;;;;;;5109187;27;19927;-66
2024/01/05 01:17:56;;;;;;;;;;;;;;;;;;5132539;27;19927;-66
2024/01/05 01:20:22;;;;;;;;;;;;;;;;;;5139144;27;19919;-66
2024/01/05 01:22:48;;;;;;;;;;;;;;;;;;5131874;27;19919;-66
2024/01/05 01:25:14;;;;;;;;;;;;;;;;;;5131745;27;19931;-66
2024/01/05 01:27:40;;;;;;;;;;;;;;;;;;5139148;27;19923;-65
2024/01/05 01:30:06;;;;;;;;;;;;;;;;;;5136522;27;19923;-66
2024/01/05 01:32:36;;;;;;;;;;;;;;;;;;5131706;27;20002;-65
2024/01/05 01:35:02;;;;;;;;;;;;;;;;;;5128718;27;20296;-66
2024/01/05 01:37:28;;;;;;;;;;;;;;;;;;5132494;27;19938;-66
2024/01/05 01:39:54;;;;;;;;;;;;;;;;;;5133338;27;19931;-66
2024/01/05 01:42:20;;;;;;;;;;;;;;;;;;5132576;27;20409;-66
2024/01/05 01:44:46;;;;;;;;;;;;;;;;;;5134739;27;20002;-66
2024/01/05 01:47:12;;;;;;;;;;;;;;;;;;5131767;27;20376;-66
2024/01/05 01:49:38;;;;;;;;;;;;;;;;;;5127331;27;19931;-66
2024/01/05 01:52:04;;;;;;;;;;;;;;;;;;5132525;27;19920;-66
2024/01/05 01:54:32;;;;;;;;;;;;;;;;;;5131421;27;20444;-66
2024/01/05 01:56:59;;;;;;;;;;;;;;;;;;5131946;27;19923;-65
2024/01/05 01:59:24;;;;;;;;;;;;;;;;;;5127480;27;19930;-65
2024/01/05 02:01:50;;;;;;;;;;;;;;;;;;5129724;27;20264;-65
2024/01/05 02:04:17;;;;;;;;;;;;;;;;;;5127584;27;19919;-65
2024/01/05 02:06:44;;;;;;;;;;;;;;;;;;5133641;27;19924;-65
2024/01/05 02:09:10;;;;;;;;;;;;;;;;;;5130327;27;19964;-65
2024/01/05 02:11:36;;;;;;;;;;;;;;;;;;5125164;27;19923;-65
2024/01/05 02:14:02;;;;;;;;;;;;;;;;;;5127167;27;19927;-65
2024/01/05 02:16:27;;;;;;;;;;;;;;;;;;5121559;27;20384;-65
2024/01/05 02:18:54;;;;;;;;;;;;;;;;;;5112093;27;19919;-65
2024/01/05 02:21:20;;;;;;;;;;;;;;;;;;5134462;27;19923;-65
2024/01/05 02:23:46;;;;;;;;;;;;;;;;;;5125748;27;19919;-66
2024/01/05 02:26:12;;;;;;;;;;;;;;;;;;5131611;27;19919;-66
2024/01/05 02:28:38;;;;;;;;;;;;;;;;;;5133122;27;19976;-64
2024/01/05 02:31:04;;;;;;;;;;;;;;;;;;5123257;27;19923;-65
2024/01/05 02:33:30;;;;;;;;;;;;;;;;;;5141946;27;19919;-66
2024/01/05 02:35:56;;;;;;;;;;;;;;;;;;5143134;27;19931;-66
2024/01/05 02:38:22;;;;;;;;;;;;;;;;;;5137795;27;19950;-66
2024/01/05 02:40:48;;;;;;;;;;;;;;;;;;5133726;27;20261;-65
2024/01/05 02:43:14;;;;;;;;;;;;;;;;;;5135560;27;19931;-65
2024/01/05 02:45:39;;;;;;;;;;;;;;;;;;5115343;27;19934;-65
2024/01/05 02:48:05;;;;;;;;;;;;;;;;;;5138161;27;19958;-65
2024/01/05 02:50:31;;;;;;;;;;;;;;;;;;5120593;27;20436;-65
2024/01/05 02:52:57;;;;;;;;;;;;;;;;;;5153235;27;19919;-65
2024/01/05 02:55:23;;;;;;;;;;;;;;;;;;5137849;27;19930;-65
2024/01/05 02:57:49;;;;;;;;;;;;;;;;;;5145113;27;19946;-65
2024/01/05 03:00:15;;;;;;;;;;;;;;;;;;5135424;27;20364;-65
2024/01/05 03:02:41;;;;;;;;;;;;;;;;;;5146591;27;19919;-65
2024/01/05 03:05:07;;;;;;;;;;;;;;;;;;5132862;27;19919;-65
2024/01/05 03:07:33;;;;;;;;;;;;;;;;;;5145950;27;19929;-65
2024/01/05 03:09:59;;;;;;;;;;;;;;;;;;5138421;27;19924;-66
2024/01/05 03:12:25;;;;;;;;;;;;;;;;;;5129597;27;20027;-65
2024/01/05 03:14:51;;;;;;;;;;;;;;;;;;5132780;27;19919;-65
2024/01/05 03:17:17;;;;;;;;;;;;;;;;;;5132034;27;19927;-66
2024/01/05 03:19:42;;;;;;;;;;;;;;;;;;5136783;27;20018;-66
2024/01/05 03:22:08;;;;;;;;;;;;;;;;;;5126139;27;20016;-66
2024/01/05 03:24:34;;;;;;;;;;;;;;;;;;5131602;27;19927;-66
2024/01/05 03:27:00;;;;;;;;;;;;;;;;;;5131420;27;20392;-66
2024/01/05 03:29:26;;;;;;;;;;;;;;;;;;5132751;27;19958;-66
2024/01/05 03:31:52;;;;;;;;;;;;;;;;;;5130455;27;19958;-66
2024/01/05 03:34:18;;;;;;;;;;;;;;;;;;5126669;27;20014;-66
2024/01/05 03:36:44;;;;;;;;;;;;;;;;;;5125852;27;20857;-66
2024/01/05 03:39:10;;;;;;;;;;;;;;;;;;5120993;27;20007;-66
2024/01/05 03:41:36;;;;;;;;;;;;;;;;;;5131847;27;19930;-66
2024/01/05 03:44:02;;;;;;;;;;;;;;;;;;5118978;27;20010;-66
2024/01/05 03:46:28;;;;;;;;;;;;;;;;;;5131488;27;19978;-65
2024/01/05 03:48:54;;;;;;;;;;;;;;;;;;5136136;27;19923;-65
2024/01/05 03:51:20;;;;;;;;;;;;;;;;;;5129495;27;19923;-65
2024/01/05 03:53:46;;;;;;;;;;;;;;;;;;5128933;27;19927;-64
2024/01/05 03:56:12;;;;;;;;;;;;;;;;;;5144178;27;19945;-65
2024/01/05 03:58:38;;;;;;;;;;;;;;;;;;5137742;27;19927;-66
2024/01/05 04:01:04;;;;;;;;;;;;;;;;;;5144094;27;20005;-66
2024/01/05 04:03:30;;;;;;;;;;;;;;;;;;5130261;27;20279;-66
2024/01/05 04:05:56;;;;;;;;;;;;;;;;;;5144409;27;19927;-66
2024/01/05 04:08:21;;;;;;;;;;;;;;;;;;5130545;27;20002;-66
2024/01/05 04:10:47;;;;;;;;;;;;;;;;;;5135465;27;19970;-66
2024/01/05 04:13:13;;;;;;;;;;;;;;;;;;5136480;27;19928;-66
2024/01/05 04:15:40;;;;;;;;;;;;;;;;;;5142841;27;19923;-66
2024/01/05 04:18:05;;;;;;;;;;;;;;;;;;5137352;27;20010;-66
2024/01/05 04:20:31;;;;;;;;;;;;;;;;;;5130494;27;20046;-66
2024/01/05 04:22:57;;;;;;;;;;;;;;;;;;5132648;27;20038;-66
2024/01/05 04:25:23;;;;;;;;;;;;;;;;;;5132910;27;19967;-66
2024/01/05 04:27:49;;;;;;;;;;;;;;;;;;5130412;27;20006;-66
2024/01/05 04:30:15;;;;;;;;;;;;;;;;;;5125728;27;20010;-65
2024/01/05 04:32:41;;;;;;;;;;;;;;;;;;5131096;27;19993;-65
2024/01/05 04:35:07;;;;;;;;;;;;;;;;;;5130277;27;19920;-66
2024/01/05 04:37:33;;;;;;;;;;;;;;;;;;5108775;28;20308;-66
2024/01/05 04:39:59;;;;;;;;;;;;;;;;;;5129938;27;19923;-66
2024/01/05 04:42:26;;;;;;;;;;;;;;;;;;5128486;27;19927;-66
2024/01/05 04:44:52;;;;;;;;;;;;;;;;;;5127855;27;19932;-66
2024/01/05 04:47:18;;;;;;;;;;;;;;;;;;5124278;27;19926;-66
2024/01/05 04:49:44;;;;;;;;;;;;;;;;;;5123962;27;19927;-66
2024/01/05 04:52:10;;;;;;;;;;;;;;;;;;5127551;27;20307;-66
2024/01/05 04:54:36;;;;;;;;;;;;;;;;;;5128222;28;20300;-66
2024/01/05 04:57:02;;;;;;;;;;;;;;;;;;5129819;27;19927;-66
2024/01/05 04:59:28;;;;;;;;;;;;;;;;;;5123197;27;19920;-66
2024/01/05 05:01:54;;;;;;;;;;;;;;;;;;5116446;27;19934;-66
2024/01/05 05:04:19;;;;;;;;;;;;;;;;;;5119573;27;20456;-66
2024/01/05 05:06:46;;;;;;;;;;;;;;;;;;5121698;27;19974;-66
2024/01/05 05:09:12;;;;;;;;;;;;;;;;;;5124513;27;20018;-66
2024/01/05 05:11:38;;;;;;;;;;;;;;;;;;5125977;27;19923;-66
2024/01/05 05:14:04;;;;;;;;;;;;;;;;;;5124753;27;19951;-66
2024/01/05 05:16:30;;;;;;;;;;;;;;;;;;5126747;27;20524;-66
2024/01/05 05:18:56;;;;;;;;;;;;;;;;;;5120978;27;19928;-66
2024/01/05 05:21:22;;;;;;;;;;;;;;;;;;5120066;27;19927;-66
2024/01/05 05:23:48;;;;;;;;;;;;;;;;;;5129882;28;19946;-66
2024/01/05 05:26:14;;;;;;;;;;;;;;;;;;5128563;28;19927;-66
2024/01/05 05:28:40;;;;;;;;;;;;;;;;;;5130939;27;19927;-66
2024/01/05 05:31:06;;;;;;;;;;;;;;;;;;5125559;27;19924;-66
2024/01/05 05:33:32;;;;;;;;;;;;;;;;;;5130500;27;19927;-65
2024/01/05 05:35:58;;;;;;;;;;;;;;;;;;5125818;27;19923;-65
2024/01/05 05:38:24;;;;;;;;;;;;;;;;;;5134156;27;19977;-65
2024/01/05 05:40:50;;;;;;;;;;;;;;;;;;5068467;27;1828403;-65
2024/01/05 05:43:16;;;;;;;;;;;;;;;;;;5135546;27;19972;-65
2024/01/05 05:45:42;;;;;;;;;;;;;;;;;;5135138;27;19919;-65
2024/01/05 05:48:07;;;;;;;;;;;;;;;;;;5135565;27;19924;-65
2024/01/05 05:50:33;;;;;;;;;;;;;;;;;;5132181;27;19929;-66
2024/01/05 05:52:59;;;;;;;;;;;;;;;;;;5131310;27;19926;-66
2024/01/05 05:55:25;;;;;;;;;;;;;;;;;;5124035;27;20176;-66
2024/01/05 05:57:51;;;;;;;;;;;;;;;;;;5124842;27;19928;-66
2024/01/05 06:00:17;;;;;;;;;;;;;;;;;;5128806;27;20021;-66
2024/01/05 06:02:43;;;;;;;;;;;;;;;;;;5134086;27;19920;-66
2024/01/05 06:05:09;;;;;;;;;;;;;;;;;;5132977;27;19920;-66
2024/01/05 06:07:35;;;;;;;;;;;;;;;;;;5132351;27;19930;-66
2024/01/05 06:10:02;;;;;;;;;;;;;;;;;;5134160;27;19926;-66
2024/01/05 06:12:28;;;;;;;;;;;;;;;;;;5133611;27;19924;-65
2024/01/05 06:14:54;;;;;;;;;;;;;;;;;;5130430;27;19935;-65
2024/01/05 06:17:20;;;;;;;;;;;;;;;;;;5134998;27;19942;-65
2024/01/05 06:19:46;;;;;;;;;;;;;;;;;;5133660;27;20571;-65
2024/01/05 06:22:12;;;;;;;;;;;;;;;;;;5131701;27;20416;-65
2024/01/05 06:24:37;;;;;;;;;;;;;;;;;;5133018;27;19971;-66
2024/01/05 06:27:03;;;;;;;;;;;;;;;;;;5133847;27;19963;-66
2024/01/05 06:29:29;;;;;;;;;;;;;;;;;;5133097;27;20392;-66
2024/01/05 06:31:55;;;;;;;;;;;;;;;;;;5130759;27;19936;-66
2024/01/05 06:34:21;;;;;;;;;;;;;;;;;;5134268;27;20006;-66
2024/01/05 06:36:47;;;;;;;;;;;;;;;;;;5127642;27;19919;-66
2024/01/05 06:39:13;;;;;;;;;;;;;;;;;;5123094;27;19919;-66
2024/01/05 06:41:39;;;;;;;;;;;;;;;;;;5134024;27;20394;-66
2024/01/05 06:44:05;;;;;;;;;;;;;;;;;;5130594;27;19930;-66
2024/01/05 06:46:31;;;;;;;;;;;;;;;;;;5134148;27;20396;-66
2024/01/05 06:48:57;;;;;;;;;;;;;;;;;;5129981;27;19926;-66
2024/01/05 06:51:29;;;;;;;;;;;;;;;;;;5138884;27;19930;-66
2024/01/05 06:53:55;;;;;;;;;;;;;;;;;;5131261;27;20365;-66
2024/01/05 06:56:21;;;;;;;;;;;;;;;;;;5142433;27;19931;-66
2024/01/05 06:58:47;;;;;;;;;;;;;;;;;;5149961;27;19929;-66
2024/01/05 07:01:13;;;;;;;;;;;;;;;;;;5117163;27;19919;-66
2024/01/05 07:03:39;;;;;;;;;;;;;;;;;;5138695;27;20320;-66
2024/01/05 07:06:05;;;;;;;;;;;;;;;;;;5134106;27;20010;-66
2024/01/05 07:08:31;;;;;;;;;;;;;;;;;;5135288;27;19924;-66
2024/01/05 07:10:57;;;;;;;;;;;;;;;;;;5143677;27;19926;-66
2024/01/05 07:13:23;;;;;;;;;;;;;;;;;;5134996;27;19943;-66
2024/01/05 07:15:48;;;;;;;;;;;;;;;;;;5111587;27;20403;-65
2024/01/05 07:18:14;;;;;;;;;;;;;;;;;;5143318;27;19923;-66
2024/01/05 07:20:40;;;;;;;;;;;;;;;;;;5137529;27;19923;-65
2024/01/05 07:23:06;;;;;;;;;;;;;;;;;;5133586;27;19934;-65
2024/01/05 07:25:32;;;;;;;;;;;;;;;;;;5147512;27;19931;-66
2024/01/05 07:27:58;;;;;;;;;;;;;;;;;;5146393;27;20145;-66
2024/01/05 07:30:24;;;;;;;;;;;;;;;;;;5142107;27;20056;-66
2024/01/05 07:32:50;;;;;;;;;;;;;;;;;;5126371;27;20575;-65
2024/01/05 07:35:16;;;;;;;;;;;;;;;;;;5131985;27;19994;-66
2024/01/05 07:37:42;;;;;;;;;;;;;;;;;;5129395;27;19971;-66
2024/01/05 07:40:08;;;;;;;;;;;;;;;;;;5132534;27;20005;-66
2024/01/05 07:42:34;;;;;;;;;;;;;;;;;;5132013;27;20365;-66
2024/01/05 07:45:00;;;;;;;;;;;;;;;;;;5130779;27;19919;-64
2024/01/05 07:47:26;;;;;;;;;;;;;;;;;;5126391;27;19927;-66
2024/01/05 07:49:52;;;;;;;;;;;;;;;;;;5128830;27;19919;-66
2024/01/05 07:52:18;;;;;;;;;;;;;;;;;;5131059;27;19919;-66
2024/01/05 07:54:44;;;;;;;;;;;;;;;;;;5132567;27;19975;-66
2024/01/05 07:57:10;;;;;;;;;;;;;;;;;;5132847;27;19923;-66
2024/01/05 07:59:35;;;;;;;;;;;;;;;;;;5132796;27;19992;-66
2024/01/05 08:02:01;;;;;;;;;;;;;;;;;;5123905;27;19924;-66
2024/01/05 08:04:27;;;;;;;;;;;;;;;;;;5132383;27;20384;-66
2024/01/05 08:06:53;;;;;;;;;;;;;;;;;;5130517;27;19962;-66
2024/01/05 08:09:19;;;;;;;;;;;;;;;;;;5131032;27;19926;-66
2024/01/05 08:11:45;;;;;;;;;;;;;;;;;;5130556;27;20373;-66
2024/01/05 08:14:11;;;;;;;;;;;;;;;;;;5131576;27;19947;-66
2024/01/05 08:16:37;;;;;;;;;;;;;;;;;;5122566;27;19923;-66
2024/01/05 08:19:03;;;;;;;;;;;;;;;;;;5129432;27;19972;-66
2024/01/05 08:21:29;;;;;;;;;;;;;;;;;;5130295;27;19924;-66
2024/01/05 08:23:56;;;;;;;;;;;;;;;;;;5126237;27;20345;-66
2024/01/05 08:26:22;;;;;;;;;;;;;;;;;;5130610;27;19972;-66
2024/01/05 08:28:48;;;;;;;;;;;;;;;;;;5129579;27;20006;-66
2024/01/05 08:31:14;;;;;;;;;;;;;;;;;;5125464;27;19928;-66
2024/01/05 08:33:40;;;;;;;;;;;;;;;;;;5126544;27;20464;-66
2024/01/05 08:36:07;;;;;;;;;;;;;;;;;;5129912;27;20010;-66
2024/01/05 08:38:33;;;;;;;;;;;;;;;;;;5121899;27;19920;-66
2024/01/05 08:40:59;;;;;;;;;;;;;;;;;;5123279;27;20368;-66
2024/01/05 08:43:25;;;;;;;;;;;;;;;;;;5129686;27;20490;-66
2024/01/05 08:45:51;;;;;;;;;;;;;;;;;;5132995;27;19975;-66
2024/01/05 08:48:17;;;;;;;;;;;;;;;;;;5129700;27;20419;-66
2024/01/05 08:50:43;;;;;;;;;;;;;;;;;;5137095;27;19946;-66
2024/01/05 08:53:09;;;;;;;;;;;;;;;;;;5119669;27;19933;-66
2024/01/05 08:55:35;;;;;;;;;;;;;;;;;;5138639;27;19959;-66
2024/01/05 08:58:02;;;;;;;;;;;;;;;;;;5131378;27;19923;-66
2024/01/05 09:00:28;;;;;;;;;;;;;;;;;;5135229;27;20056;-66
2024/01/05 09:02:55;;;;;;;;;;;;;;;;;;5124067;27;20014;-66
2024/01/05 09:05:21;;;;;;;;;;;;;;;;;;5136968;27;22024;-65
2024/01/05 09:07:48;;;;;;;;;;;;;;;;;;5140799;27;19919;-66
2024/01/05 09:10:14;;;;;;;;;;;;;;;;;;5147685;27;20345;-65
2024/01/05 09:12:40;;;;;;;;;;;;;;;;;;5131347;27;19927;-66
2024/01/05 09:15:06;;;;;;;;;;;;;;;;;;5127581;27;19931;-65
2024/01/05 09:17:32;;;;;;;;;;;;;;;;;;5125797;27;19927;-65
2024/01/05 09:19:58;;;;;;;;;;;;;;;;;;5133523;27;20368;-65
2024/01/05 09:22:23;;;;;;;;;;;;;;;;;;5128673;27;20603;-65
2024/01/05 09:24:49;;;;;;;;;;;;;;;;;;5133444;27;19920;-65
2024/01/05 09:27:16;;;;;;;;;;;;;;;;;;5127165;27;20124;-66
2024/01/05 09:29:42;;;;;;;;;;;;;;;;;;5135409;27;19983;-66
2024/01/05 09:32:08;;;;;;;;;;;;;;;;;;5133413;27;19923;-65
2024/01/05 09:34:34;;;;;;;;;;;;;;;;;;5139401;27;20558;-66
2024/01/05 09:36:59;;;;;;;;;;;;;;;;;;5137198;27;19972;-66
2024/01/05 09:39:25;;;;;;;;;;;;;;;;;;5134411;27;19934;-66
2024/01/05 09:41:51;;;;;;;;;;;;;;;;;;5139286;27;19928;-66
2024/01/05 09:44:17;;;;;;;;;;;;;;;;;;5139126;27;19919;-66
2024/01/05 09:46:43;;;;;;;;;;;;;;;;;;5134968;27;19928;-66
2024/01/05 09:49:09;;;;;;;;;;;;;;;;;;5133117;27;19923;-66
2024/01/05 09:51:35;;;;;;;;;;;;;;;;;;5128213;27;20364;-66
2024/01/05 09:54:01;;;;;;;;;;;;;;;;;;5139304;27;20681;-66
2024/01/05 09:56:27;;;;;;;;;;;;;;;;;;5127603;27;19950;-66
2024/01/05 09:58:53;;;;;;;;;;;;;;;;;;5131284;27;20029;-66
2024/01/05 10:01:19;;;;;;;;;;;;;;;;;;5132658;27;19973;-66
2024/01/05 10:03:45;;;;;;;;;;;;;;;;;;5131846;27;20288;-65
2024/01/05 10:06:11;;;;;;;;;;;;;;;;;;5137832;27;19923;-66
2024/01/05 10:08:37;;;;;;;;;;;;;;;;;;5124337;27;19926;-65
2024/01/05 10:11:06;;;;;;;;;;;;;;;;;;5127903;27;19927;-66
2024/01/05 10:13:32;;;;;;;;;;;;;;;;;;5130915;27;19927;-66
2024/01/05 10:16:02;;;;;;;;;;;;;;;;;;5128860;27;19919;-64
2024/01/05 10:18:28;;;;;;;;;;;;;;;;;;5123299;27;19928;-66
2024/01/05 10:20:57;;;;;;;;;;;;;;;;;;5131499;27;20293;-66
2024/01/05 10:23:23;;;;;;;;;;;;;;;;;;5126760;27;19964;-66
2024/01/05 10:25:51;;;;;;;;;;;;;;;;;;5132140;27;19919;-66
2024/01/05 10:28:17;;;;;;;;;;;;;;;;;;5128332;27;19930;-66
2024/01/05 10:30:43;;;;;;;;;;;;;;;;;;5124781;27;19927;-66
2024/01/05 10:33:09;;;;;;;;;;;;;;;;;;5126010;27;20276;-66
2024/01/05 10:35:35;;;;;;;;;;;;;;;;;;5127582;27;19938;-66
2024/01/05 10:38:01;;;;;;;;;;;;;;;;;;5131680;27;19920;-66
2024/01/05 10:40:27;;;;;;;;;;;;;;;;;;5139584;27;19923;-66
2024/01/05 10:42:53;;;;;;;;;;;;;;;;;;5131563;27;19999;-66
2024/01/05 10:45:19;;;;;;;;;;;;;;;;;;5133195;27;20331;-66
2024/01/05 10:47:47;;;;;;;;;;;;;;;;;;5127421;27;19919;-66
2024/01/05 10:50:13;;;;;;;;;;;;;;;;;;5127900;27;19927;-66
2024/01/05 10:52:39;;;;;;;;;;;;;;;;;;5129276;27;19923;-66
2024/01/05 10:55:05;;;;;;;;;;;;;;;;;;5128662;27;19924;-66
2024/01/05 10:57:31;;;;;;;;;;;;;;;;;;5130344;22;20048;-66
2024/01/05 10:59:57;;;;;;;;;;;;;;;;;;5108430;28;19927;-66
2024/01/05 11:02:23;;;;;;;;;;;;;;;;;;5105304;28;19924;-66
2024/01/05 11:04:49;;;;;;;;;;;;;;;;;;5106656;28;20006;-66
2024/01/05 11:07:14;;;;;;;;;;;;;;;;;;5103465;28;19967;-66
2024/01/05 11:09:40;;;;;;;;;;;;;;;;;;5093003;28;20428;-66
2024/01/05 11:12:09;;;;;;;;;;;;;;;;;;5105714;28;20014;-66
2024/01/05 11:14:35;;;;;;;;;;;;;;;;;;5110040;27;19928;-66
2024/01/05 11:17:01;;;;;;;;;;;;;;;;;;5107574;28;19988;-65
2024/01/05 11:19:27;;;;;;;;;;;;;;;;;;5103174;28;20295;-65
2024/01/05 11:21:54;;;;;;;;;;;;;;;;;;5111076;28;19995;-65
2024/01/05 11:24:20;;;;;;;;;;;;;;;;;;5098073;28;19920;-65
2024/01/05 11:26:46;;;;;;;;;;;;;;;;;;5109039;28;20636;-65
2024/01/05 11:29:15;;;;;;;;;;;;;;;;;;5100960;28;19924;-65
2024/01/05 11:31:41;;;;;;;;;;;;;;;;;;5101857;28;19947;-66
2024/01/05 11:34:08;;;;;;;;;;;;;;;;;;5110256;28;20022;-66
2024/01/05 11:36:34;;;;;;;;;;;;;;;;;;5110001;28;20384;-66
2024/01/05 11:39:00;;;;;;;;;;;;;;;;;;5110263;28;19920;-66
2024/01/05 11:41:26;;;;;;;;;;;;;;;;;;5104130;28;20014;-66
2024/01/05 11:43:52;;;;;;;;;;;;;;;;;;5108714;28;19924;-66
2024/01/05 11:46:18;;;;;;;;;;;;;;;;;;5101916;28;19930;-66
2024/01/05 11:48:44;;;;;;;;;;;;;;;;;;5107348;28;19920;-66
2024/01/05 11:51:09;;;;;;;;;;;;;;;;;;5105014;28;19924;-66
2024/01/05 11:53:35;;;;;;;;;;;;;;;;;;5099247;28;19928;-64
2024/01/05 11:56:03;;;;;;;;;;;;;;;;;;5101054;28;20301;-64
2024/01/05 11:58:31;;;;;;;;;;;;;;;;;;5085139;28;19924;-65
2024/01/05 12:00:57;;;;;;;;;;;;;;;;;;5101449;28;19926;-65
2024/01/05 12:03:25;;;;;;;;;;;;;;;;;;5096965;28;20344;-65
2024/01/05 12:05:51;;;;;;;;;;;;;;;;;;5108894;28;19962;-65
2024/01/05 12:08:17;;;;;;;;;;;;;;;;;;5101079;28;19967;-65
2024/01/05 12:10:43;;;;;;;;;;;;;;;;;;5092313;28;19983;-65
2024/01/05 12:13:09;;;;;;;;;;;;;;;;;;5091498;28;19993;-65
2024/01/05 12:15:35;;;;;;;;;;;;;;;;;;5095003;28;19942;-65
2024/01/05 12:18:01;;;;;;;;;;;;;;;;;;5096774;28;19969;-65
2024/01/05 12:20:27;;;;;;;;;;;;;;;;;;5097534;28;19990;-65
2024/01/05 12:22:53;;;;;;;;;;;;;;;;;;5099785;28;20396;-65
2024/01/05 12:25:19;;;;;;;;;;;;;;;;;;5100397;28;19958;-65
2024/01/05 12:27:45;;;;;;;;;;;;;;;;;;5102368;28;20031;-66
2024/01/05 12:30:11;;;;;;;;;;;;;;;;;;5104653;28;19946;-66
2024/01/05 12:32:37;;;;;;;;;;;;;;;;;;5105069;28;19919;-66
2024/01/05 12:35:03;;;;;;;;;;;;;;;;;;5097423;28;19928;-66
2024/01/05 12:37:28;;;;;;;;;;;;;;;;;;5106786;28;19924;-66
2024/01/05 12:39:54;;;;;;;;;;;;;;;;;;5107823;28;19928;-66
2024/01/05 12:42:20;;;;;;;;;;;;;;;;;;5103796;28;19934;-66
2024/01/05 12:44:46;;;;;;;;;;;;;;;;;;5105834;28;19924;-66
2024/01/05 12:47:12;;;;;;;;;;;;;;;;;;5103998;28;20280;-66
2024/01/05 12:49:38;;;;;;;;;;;;;;;;;;5105240;28;19924;-66
2024/01/05 12:52:04;;;;;;;;;;;;;;;;;;5103183;28;19965;-66
2024/01/05 12:54:30;;;;;;;;;;;;;;;;;;5102888;28;19931;-66
2024/01/05 12:56:58;;;;;;;;;;;;;;;;;;5101892;28;20577;-66
2024/01/05 12:59:24;;;;;;;;;;;;;;;;;;5092968;28;20367;-66
2024/01/05 13:01:49;;;;;;;;;;;;;;;;;;5105839;28;19923;-65
2024/01/05 13:04:15;;;;;;;;;;;;;;;;;;5103578;28;19920;-64
2024/01/05 13:06:43;;;;;;;;;;;;;;;;;;5099273;28;19928;-65
2024/01/05 13:09:09;;;;;;;;;;;;;;;;;;5100645;28;20379;-65
2024/01/05 13:11:35;;;;;;;;;;;;;;;;;;5107194;28;19920;-65
2024/01/05 13:14:01;;;;;;;;;;;;;;;;;;5103789;28;19935;-65
2024/01/05 13:16:27;;;;;;;;;;;;;;;;;;5104229;28;19920;-65
2024/01/05 13:18:53;;;;;;;;;;;;;;;;;;5092197;28;20325;-65
2024/01/05 13:21:19;;;;;;;;;;;;;;;;;;5107419;28;19931;-65
2024/01/05 13:23:46;;;;;;;;;;;;;;;;;;5102970;28;19928;-65
2024/01/05 13:26:12;;;;;;;;;;;;;;;;;;5105173;28;19955;-65
2024/01/05 13:28:40;;;;;;;;;;;;;;;;;;5102621;28;19967;-65
2024/01/05 13:31:06;;;;;;;;;;;;;;;;;;5100446;28;19951;-66
2024/01/05 13:33:32;;;;;;;;;;;;;;;;;;5107668;28;19955;-66
2024/01/05 13:35:57;;;;;;;;;;;;;;;;;;5108953;28;19920;-66
2024/01/05 13:38:23;;;;;;;;;;;;;;;;;;5105662;28;19937;-66
2024/01/05 13:40:49;;;;;;;;;;;;;;;;;;5096580;28;19924;-66
2024/01/05 13:43:15;;;;;;;;;;;;;;;;;;5110436;28;20022;-66
2024/01/05 13:45:41;;;;;;;;;;;;;;;;;;5096305;28;19947;-66
2024/01/05 13:48:07;;;;;;;;;;;;;;;;;;5112689;28;20049;-66
2024/01/05 13:50:33;;;;;;;;;;;;;;;;;;5112080;28;20585;-66
2024/01/05 13:53:03;;;;;;;;;;;;;;;;;;5106638;28;20014;-65
2024/01/05 13:55:29;;;;;;;;;;;;;;;;;;5102253;28;19923;-66
2024/01/05 13:57:55;;;;;;;;;;;;;;;;;;5101008;28;20410;-66
2024/01/05 14:00:21;;;;;;;;;;;;;;;;;;5109112;28;19927;-66
2024/01/05 14:02:47;;;;;;;;;;;;;;;;;;5104245;28;19920;-66
2024/01/05 14:05:13;;;;;;;;;;;;;;;;;;5104472;28;20305;-66
2024/01/05 14:07:39;;;;;;;;;;;;;;;;;;5111273;28;19935;-66
2024/01/05 14:10:05;;;;;;;;;;;;;;;;;;5101563;28;19931;-66
2024/01/05 14:12:32;;;;;;;;;;;;;;;;;;5109500;28;20269;-66
2024/01/05 14:14:58;;;;;;;;;;;;;;;;;;5107970;28;19923;-66
2024/01/05 14:17:24;;;;;;;;;;;;;;;;;;5105527;28;19932;-64
2024/01/05 14:19:50;;;;;;;;;;;;;;;;;;5108372;28;19948;-65
2024/01/05 14:22:15;;;;;;;;;;;;;;;;;;5103308;28;19927;-65
2024/01/05 14:24:41;;;;;;;;;;;;;;;;;;5106871;28;20468;-65
2024/01/05 14:27:07;;;;;;;;;;;;;;;;;;5091151;28;19932;-65
2024/01/05 14:29:33;;;;;;;;;;;;;;;;;;5103742;28;19923;-65
2024/01/05 14:32:00;;;;;;;;;;;;;;;;;;5093292;28;19924;-65
2024/01/05 14:34:25;;;;;;;;;;;;;;;;;;5106273;28;20413;-65
2024/01/05 14:36:51;;;;;;;;;;;;;;;;;;5102586;28;19923;-65
2024/01/05 14:39:18;;;;;;;;;;;;;;;;;;5103446;28;19935;-65
2024/01/05 14:41:44;;;;;;;;;;;;;;;;;;5099603;28;20273;-66
2024/01/05 14:44:10;;;;;;;;;;;;;;;;;;5109590;28;19923;-66
2024/01/05 14:46:36;;;;;;;;;;;;;;;;;;5096627;28;19920;-66
2024/01/05 14:49:03;;;;;;;;;;;;;;;;;;5105112;28;19930;-66
2024/01/05 14:51:29;;;;;;;;;;;;;;;;;;5102441;28;19924;-66
2024/01/05 14:53:55;;;;;;;;;;;;;;;;;;5108725;28;19935;-67
2024/01/05 14:56:21;;;;;;;;;;;;;;;;;;5102601;28;19924;-67
2024/01/05 14:58:47;;;;;;;;;;;;;;;;;;5102361;28;19923;-67
2024/01/05 15:01:13;;;;;;;;;;;;;;;;;;5100555;28;19926;-66
2024/01/05 15:03:39;;;;;;;;;;;;;;;;;;5090104;28;19971;-66
2024/01/05 15:06:05;;;;;;;;;;;;;;;;;;5107485;28;19928;-66
2024/01/05 15:08:31;;;;;;;;;;;;;;;;;;5105582;28;20318;-66
2024/01/05 15:10:57;;;;;;;;;;;;;;;;;;5104450;28;19924;-66
2024/01/05 15:13:22;;;;;;;;;;;;;;;;;;5104197;28;19924;-66
2024/01/05 15:15:49;;;;;;;;;;;;;;;;;;5104852;28;19926;-66
2024/01/05 15:18:15;;;;;;;;;;;;;;;;;;5104013;28;19935;-66
2024/01/05 15:20:41;;;;;;;;;;;;;;;;;;5097937;28;19923;-66
2024/01/05 15:23:07;;;;;;;;;;;;;;;;;;5101350;28;20003;-66
2024/01/05 15:25:33;;;;;;;;;;;;;;;;;;5094992;28;19926;-66
2024/01/05 15:27:59;;;;;;;;;;;;;;;;;;5101885;28;20455;-66
2024/01/05 15:30:26;;;;;;;;;;;;;;;;;;5103123;28;19984;-67
2024/01/05 15:32:52;;;;;;;;;;;;;;;;;;5104179;28;19920;-66
2024/01/05 15:35:18;;;;;;;;;;;;;;;;;;5093009;28;19935;-66
2024/01/05 15:37:44;;;;;;;;;;;;;;;;;;5099399;28;19920;-66
2024/01/05 15:40:09;;;;;;;;;;;;;;;;;;5101975;28;19920;-66
2024/01/05 15:42:35;;;;;;;;;;;;;;;;;;5098795;28;19928;-65
2024/01/05 15:45:01;;;;;;;;;;;;;;;;;;5106670;28;20349;-65
2024/01/05 15:47:27;;;;;;;;;;;;;;;;;;5108757;28;19930;-65
2024/01/05 15:49:53;;;;;;;;;;;;;;;;;;5105026;28;19920;-65
2024/01/05 15:52:19;;;;;;;;;;;;;;;;;;5107049;28;19972;-66
2024/01/05 15:54:45;;;;;;;;;;;;;;;;;;5105820;28;19939;-66
2024/01/05 15:57:15;;;;;;;;;;;;;;;;;;5098397;28;19998;-66
2024/01/05 15:59:41;;;;;;;;;;;;;;;;;;5109357;28;19927;-66
2024/01/05 16:02:07;;;;;;;;;;;;;;;;;;5109045;28;19970;-66
2024/01/05 16:04:34;;;;;;;;;;;;;;;;;;5103601;28;19968;-64
2024/01/05 16:07:00;;;;;;;;;;;;;;;;;;5104779;28;19931;-64
2024/01/05 16:09:26;;;;;;;;;;;;;;;;;;5093352;28;19923;-65
2024/01/05 16:11:52;;;;;;;;;;;;;;;;;;5100681;28;20649;-65
2024/01/05 16:14:18;;;;;;;;;;;;;;;;;;5097282;28;19928;-65
2024/01/05 16:16:44;;;;;;;;;;;;;;;;;;5103571;28;19927;-65
2024/01/05 16:19:10;;;;;;;;;;;;;;;;;;5107104;28;19927;-65
2024/01/05 16:21:36;;;;;;;;;;;;;;;;;;5106643;28;19928;-65
2024/01/05 16:24:03;;;;;;;;;;;;;;;;;;5101632;28;19928;-65
2024/01/05 16:26:29;;;;;;;;;;;;;;;;;;5089791;28;19926;-65
2024/01/05 16:28:55;;;;;;;;;;;;;;;;;;5090643;28;20288;-65
2024/01/05 16:31:21;;;;;;;;;;;;;;;;;;5104371;28;19924;-66
2024/01/05 16:33:47;;;;;;;;;;;;;;;;;;5103710;28;19934;-66
2024/01/05 16:36:13;;;;;;;;;;;;;;;;;;5099127;28;20023;-66